9IL6 weather

Weishaupt Airport
Mackinaw, Illinois, United States

Public forecast

Using degrees Fahrenheit for public forecast. Weather courtesy of forecast.io.

Closest aviation weather report (METAR) to Weishaupt Airport

Closest report is General Wayne A. Downing Peoria International Airport, 17.4 nm (32.2 km) WNW. Retrieved 2020/07/06 15:54 UTC (1 hour ago):

KPIA 061554Z VRB03KT 10SM CLR 32/21 A3003 RMK AO2 SLP163 T03170206

Closest aviation forecast (TAF) to Weishaupt Airport

Closest forecast is General Wayne A. Downing Peoria International Airport, 17.4 nm (32.2 km) WNW. Retrieved 2020/07/06 12:22 UTC (5 hours ago):

TAF KPIA 061120Z 0612/0712 06003KT P6SM SKC FM061700 11003KT P6SM SCT040 FM070200 16003KT P6SM SCT250